createdAt,value
2023-04-17T00:01:04.035Z,101642.41
2023-04-17T00:03:31.896Z,101642.41
2023-04-17T00:05:58.543Z,101636.03
2023-04-17T00:08:25.049Z,101641.53
2023-04-17T00:11:04.117Z,101640.50
2023-04-17T00:13:33.952Z,101641.34
2023-04-17T00:16:00.490Z,101642.84
2023-04-17T00:18:26.985Z,101639.06
2023-04-17T00:20:53.647Z,101643.72
2023-04-17T00:23:20.307Z,101639.06
2023-04-17T00:25:46.726Z,101643.53
2023-04-17T00:28:13.204Z,101638.84
2023-04-17T00:30:39.593Z,101634.19
2023-04-17T00:33:06.083Z,101633.16
2023-04-17T00:35:32.547Z,101642.28
2023-04-17T00:37:58.997Z,101634.84
2023-04-17T00:40:25.383Z,101637.81
2023-04-17T00:42:56.038Z,101632.97
2023-04-17T00:45:22.563Z,101630.19
2023-04-17T00:47:49.970Z,101628.50
2023-04-17T00:50:16.551Z,101627.44
2023-04-17T00:52:44.111Z,101620.22
2023-04-17T00:55:10.985Z,101624.69
2023-04-17T00:57:37.564Z,101632.75
2023-04-17T01:00:04.546Z,101620.84
2023-04-17T01:02:31.258Z,101624.28
2023-04-17T01:04:57.886Z,101623.63
2023-04-17T01:07:24.415Z,101621.94
2023-04-17T01:09:51.096Z,101618.78
2023-04-17T01:12:25.140Z,101618.78
2023-04-17T01:14:52.751Z,101616.00
2023-04-17T01:17:19.620Z,101620.50
2023-04-17T01:22:27.255Z,101620.66
2023-04-17T01:24:53.665Z,101623.25
2023-04-17T01:27:22.397Z,101621.31
2023-04-17T01:29:48.920Z,101626.81
2023-04-17T01:32:17.065Z,101626.81
2023-04-17T01:34:43.491Z,101624.06
2023-04-17T01:37:10.067Z,101623.88
2023-04-17T01:39:37.197Z,101624.06
2023-04-17T01:42:03.929Z,101631.09
2023-04-17T01:44:30.371Z,101627.28
2023-04-17T01:46:56.888Z,101629.00
2023-04-17T01:49:23.328Z,101627.72
2023-04-17T01:51:49.968Z,101627.72
2023-04-17T01:54:16.403Z,101626.03
2023-04-17T01:56:42.766Z,101627.72
2023-04-17T01:59:10.636Z,101626.03
2023-04-17T02:01:37.400Z,101623.06
2023-04-17T02:04:04.134Z,101629.44
2023-04-17T02:06:32.016Z,101631.34
2023-04-17T02:08:59.509Z,101626.03
2023-04-17T02:11:26.320Z,101626.44
2023-04-17T02:13:52.895Z,101620.09
2023-04-17T02:16:21.653Z,101620.09
2023-04-17T02:18:49.445Z,101626.00
2023-04-17T02:21:16.019Z,101618.78
2023-04-17T02:23:42.731Z,101620.50
2023-04-17T02:26:09.183Z,101620.50
2023-04-17T02:28:35.643Z,101622.16
2023-04-17T02:31:02.196Z,101622.84
2023-04-17T02:33:28.575Z,101617.31
2023-04-17T02:35:54.978Z,101620.94
2023-04-17T02:38:21.591Z,101615.44
2023-04-17T02:40:47.978Z,101614.56
2023-04-17T02:43:14.468Z,101608.38
2023-04-17T02:45:40.884Z,101612.84
2023-04-17T02:48:07.322Z,101609.47
2023-04-17T02:50:34.096Z,101615.16
2023-04-17T02:53:00.571Z,101610.91
2023-04-17T02:55:27.134Z,101610.47
2023-04-17T02:57:53.614Z,101608.94
2023-04-17T03:00:21.126Z,101616.34
2023-04-17T03:02:48.163Z,101612.75
2023-04-17T03:05:16.273Z,101621.03
2023-04-17T03:07:42.685Z,101618.63
2023-04-17T03:10:09.691Z,101616.09
2023-04-17T03:12:36.162Z,101611.81
2023-04-17T03:15:02.788Z,101610.53
2023-04-17T03:17:29.222Z,101617.28
2023-04-17T03:19:55.768Z,101613.88
2023-04-17T03:22:22.177Z,101613.44
2023-04-17T03:24:48.563Z,101616.59
2023-04-17T03:27:14.957Z,101616.75
2023-04-17T03:29:41.356Z,101622.28
2023-04-17T03:32:08.042Z,101619.34
2023-04-17T03:34:34.551Z,101616.75
2023-04-17T03:37:00.966Z,101625.66
2023-04-17T03:39:27.371Z,101617.63
2023-04-17T03:41:53.824Z,101618.25
2023-04-17T03:44:20.244Z,101616.59
2023-04-17T03:46:46.705Z,101620.16
2023-04-17T03:49:13.354Z,101617.22
2023-04-17T03:51:39.914Z,101625.50
2023-04-17T03:54:06.441Z,101623.59
2023-04-17T03:56:32.934Z,101622.56
2023-04-17T03:58:59.506Z,101618.09
2023-04-17T04:01:28.275Z,101616.81
2023-04-17T04:03:55.399Z,101620.63
2023-04-17T04:06:22.500Z,101621.03
2023-04-17T04:08:49.423Z,101613.81
2023-04-17T04:11:16.226Z,101617.63
2023-04-17T04:13:42.676Z,101624.19
2023-04-17T04:16:09.332Z,101615.06
2023-04-17T04:18:36.420Z,101618.66
2023-04-17T04:21:03.172Z,101618.88
2023-04-17T04:23:30.576Z,101613.56
2023-04-17T04:25:57.965Z,101618.03
2023-04-17T04:28:24.453Z,101624.38
2023-04-17T04:30:53.582Z,101627.97
2023-04-17T04:33:20.909Z,101622.28
2023-04-17T04:35:48.616Z,101633.13
2023-04-17T04:38:17.100Z,101626.53
2023-04-17T04:40:49.872Z,101631.00
2023-04-17T04:43:16.409Z,101638.22
2023-04-17T04:45:42.806Z,101634.41
2023-04-17T04:48:09.249Z,101637.81
2023-04-17T04:50:35.870Z,101632.78
2023-04-17T04:53:02.333Z,101638.09
2023-04-17T04:55:30.529Z,101634.94
2023-04-17T04:57:57.516Z,101640.44
2023-04-17T05:00:24.805Z,101643.84
2023-04-17T05:02:51.420Z,101640.22
2023-04-17T05:05:17.872Z,101640.22
2023-04-17T05:07:44.255Z,101641.09
2023-04-17T05:10:10.753Z,101636.44
2023-04-17T05:12:37.153Z,101642.81
2023-04-17T05:15:03.910Z,101651.06
2023-04-17T05:17:30.443Z,101657.44
2023-04-17T05:19:56.846Z,101657.44
2023-04-17T05:22:23.213Z,101657.22
2023-04-17T05:24:49.651Z,101659.97
2023-04-17T05:27:16.550Z,101656.38
2023-04-17T05:29:43.009Z,101661.88
2023-04-17T05:32:09.555Z,101659.13
2023-04-17T05:34:36.029Z,101663.59
2023-04-17T05:37:03.314Z,101664.44
2023-04-17T05:39:29.797Z,101666.16
2023-04-17T05:41:56.443Z,101674.22
2023-04-17T05:44:22.929Z,101657.69
2023-04-17T05:46:49.369Z,101665.75
2023-04-17T05:49:15.839Z,101661.97
2023-04-17T05:51:42.478Z,101672.78
2023-04-17T05:54:08.867Z,101667.25
2023-04-17T05:56:35.616Z,101672.59
2023-04-17T05:59:02.070Z,101666.03
2023-04-17T06:01:29.910Z,101663.28
2023-04-17T06:03:56.670Z,101668.78
2023-04-17T06:06:23.522Z,101667.72
2023-04-17T06:08:49.953Z,101667.94
2023-04-17T06:11:17.184Z,101671.53
2023-04-17T06:13:43.790Z,101676.38
2023-04-17T06:16:10.538Z,101672.78
2023-04-17T06:18:37.030Z,101670.88
2023-04-17T06:21:03.562Z,101675.53
2023-04-17T06:23:30.278Z,101674.66
2023-04-17T06:25:57.350Z,101678.03
2023-04-17T06:28:23.814Z,101680.97
2023-04-17T06:30:50.320Z,101680.97
2023-04-17T06:33:16.731Z,101683.75
2023-04-17T06:35:43.138Z,101692.69
2023-04-17T06:38:09.523Z,101695.22
2023-04-17T06:40:36.034Z,101693.72
2023-04-17T06:43:02.471Z,101688.22
2023-04-17T06:45:28.858Z,101692.69
2023-04-17T06:47:55.296Z,101690.97
2023-04-17T06:50:21.785Z,101697.34
2023-04-17T06:52:48.217Z,101693.72
2023-04-17T06:55:14.856Z,101691.81
2023-04-17T06:57:41.307Z,101692.69
2023-04-17T07:00:08.385Z,101698.19
2023-04-17T07:02:34.990Z,101700.94
2023-04-17T07:05:02.163Z,101694.75
2023-04-17T07:07:30.665Z,101697.50
2023-04-17T07:09:57.605Z,101699.22
2023-04-17T07:12:24.031Z,101709.22
2023-04-17T07:14:51.110Z,101709.00
2023-04-17T07:17:18.045Z,101711.56
2023-04-17T07:19:44.550Z,101708.59
2023-04-17T07:22:11.153Z,101728.97
2023-04-17T07:24:37.525Z,101722.84
2023-04-17T07:27:04.627Z,101727.97
2023-04-17T07:29:31.299Z,101735.84
2023-04-17T07:31:57.755Z,101740.97
2023-04-17T07:34:27.182Z,101739.13
2023-04-17T07:36:53.562Z,101742.16
2023-04-17T07:39:20.008Z,101740.72
2023-04-17T07:41:46.458Z,101747.06
2023-04-17T07:44:13.094Z,101740.94
2023-04-17T07:46:39.571Z,101742.25
2023-04-17T07:49:06.188Z,101734.25
2023-04-17T07:51:32.830Z,101739.56
2023-04-17T07:53:59.250Z,101743.84
2023-04-17T07:56:27.698Z,101747.25
2023-04-17T07:58:54.133Z,101741.31
2023-04-17T08:01:21.489Z,101743.34
2023-04-17T08:03:48.853Z,101750.13
2023-04-17T08:06:15.688Z,101746.19
2023-04-17T08:08:47.353Z,101750.50
2023-04-17T08:11:14.519Z,101747.19
2023-04-17T08:13:41.073Z,101745.09
2023-04-17T08:16:08.934Z,101752.22
2023-04-17T08:18:37.423Z,101752.28
2023-04-17T08:21:04.384Z,101752.13
2023-04-17T08:23:31.001Z,101749.63
2023-04-17T08:25:57.528Z,101759.66
2023-04-17T08:28:24.699Z,101748.84
2023-04-17T08:30:51.405Z,101758.00
2023-04-17T08:33:18.605Z,101744.22
2023-04-17T08:35:45.313Z,101746.97
2023-04-17T08:38:14.073Z,101744.91
2023-04-17T08:40:43.041Z,101745.31
2023-04-17T08:43:16.125Z,101749.56
2023-04-17T08:45:55.394Z,101753.22
2023-04-17T08:48:25.017Z,101747.28
2023-04-17T08:50:53.322Z,101752.38
2023-04-17T08:53:20.949Z,101748.13
2023-04-17T08:55:48.146Z,101746.41
2023-04-17T08:58:15.083Z,101749.41
2023-04-17T09:00:43.755Z,101740.06
2023-04-17T09:03:12.731Z,101741.56
2023-04-17T09:05:42.651Z,101744.31
2023-04-17T09:08:15.741Z,101740.50
2023-04-17T09:10:49.472Z,101741.59
2023-04-17T09:13:18.180Z,101750.56
2023-04-17T09:15:46.861Z,101750.34
2023-04-17T09:18:32.941Z,101739.91
2023-04-17T09:21:01.164Z,101743.97
2023-04-17T09:23:29.763Z,101740.09
2023-04-17T09:26:10.888Z,101737.56
2023-04-17T09:28:41.334Z,101747.78
2023-04-17T09:31:26.400Z,101739.47
2023-04-17T09:33:58.061Z,101736.50
2023-04-17T09:36:24.870Z,101747.78
2023-04-17T09:38:51.708Z,101736.47
2023-04-17T09:41:27.186Z,101734.56
2023-04-17T09:43:55.739Z,101730.31
2023-04-17T09:46:41.228Z,101736.25
2023-04-17T09:49:11.029Z,101734.09
2023-04-17T09:51:37.699Z,101733.22
2023-04-17T09:54:06.829Z,101730.69
2023-04-17T09:56:35.537Z,101732.13
2023-04-17T09:59:06.220Z,101724.63
2023-04-17T10:01:34.656Z,101717.47
2023-04-17T10:04:02.507Z,101710.84
2023-04-17T10:06:31.449Z,101712.44
2023-04-17T10:08:58.181Z,101706.84
2023-04-17T10:11:27.374Z,101699.97
2023-04-17T10:14:12.112Z,101714.56
2023-04-17T10:16:43.483Z,101707.81
2023-04-17T10:19:32.447Z,101716.38
2023-04-17T10:22:14.299Z,101712.19
2023-04-17T10:24:41.129Z,101713.72
2023-04-17T10:27:26.157Z,101712.47
2023-04-17T10:30:00.190Z,101700.69
2023-04-17T10:32:29.085Z,101693.28
2023-04-17T10:35:22.525Z,101689.63
2023-04-17T10:37:51.629Z,101677.47
2023-04-17T10:40:24.140Z,101674.66
2023-04-17T10:43:22.985Z,101672.72
2023-04-17T10:45:58.194Z,101679.56
2023-04-17T10:48:40.849Z,101675.97
2023-04-17T10:51:28.875Z,101674.09
2023-04-17T10:53:57.315Z,101671.88
2023-04-17T10:56:29.021Z,101670.81
2023-04-17T10:58:58.394Z,101669.00
2023-04-17T11:01:37.697Z,101662.50
2023-04-17T11:04:06.120Z,101663.25
2023-04-17T11:06:38.147Z,101660.41
2023-04-17T11:09:08.135Z,101666.09
2023-04-17T11:11:44.689Z,101665.97
2023-04-17T11:14:21.128Z,101660.41
2023-04-17T11:16:49.896Z,101665.31
2023-04-17T11:19:24.228Z,101672.41
2023-04-17T11:21:53.408Z,101667.06
2023-04-17T11:24:31.211Z,101672.22
2023-04-17T11:27:03.972Z,101664.28
2023-04-17T11:29:30.715Z,101669.94
2023-04-17T11:31:57.617Z,101660.47
2023-04-17T11:34:27.139Z,101661.59
2023-04-17T11:36:59.332Z,101656.53
2023-04-17T11:39:28.820Z,101649.03
2023-04-17T11:41:57.005Z,101645.28
2023-04-17T11:44:24.200Z,101654.72
2023-04-17T11:46:54.840Z,101657.34
2023-04-17T11:49:27.895Z,101653.44
2023-04-17T11:51:56.650Z,101654.56
2023-04-17T11:54:27.895Z,101652.16
2023-04-17T11:57:02.204Z,101649.19
2023-04-17T11:59:37.158Z,101647.72
2023-04-17T12:02:08.217Z,101649.53
2023-04-17T12:04:36.908Z,101651.91
2023-04-17T12:07:04.750Z,101643.66
2023-04-17T12:09:32.333Z,101661.88
2023-04-17T12:12:04.390Z,101660.59
2023-04-17T12:14:31.539Z,101660.91
2023-04-17T12:16:58.111Z,101666.22
2023-04-17T12:19:26.719Z,101666.53
2023-04-17T12:21:54.275Z,101663.63
2023-04-17T12:24:22.872Z,101663.22
2023-04-17T12:26:50.606Z,101659.59
2023-04-17T12:29:17.699Z,101652.50
2023-04-17T12:31:45.090Z,101653.25
2023-04-17T12:34:11.755Z,101650.94
2023-04-17T12:36:38.648Z,101653.91
2023-04-17T12:39:05.174Z,101648.44
2023-04-17T12:41:31.922Z,101650.63
2023-04-17T12:44:01.739Z,101654.00
2023-04-17T12:46:28.379Z,101650.16
2023-04-17T12:48:58.531Z,101645.13
2023-04-17T12:51:29.102Z,101645.81
2023-04-17T12:53:56.330Z,101634.97
2023-04-17T12:56:23.109Z,101630.03
2023-04-17T12:58:49.750Z,101637.38
2023-04-17T13:01:16.273Z,101649.88
2023-04-17T13:03:42.827Z,101651.41
2023-04-17T13:06:09.453Z,101643.03
2023-04-17T13:08:36.308Z,101641.81
2023-04-17T13:11:03.961Z,101641.75
2023-04-17T13:13:30.399Z,101645.94
2023-04-17T13:15:56.800Z,101643.88
2023-04-17T13:18:23.243Z,101637.94
2023-04-17T13:20:49.685Z,101634.91
2023-04-17T13:23:16.140Z,101625.25
2023-04-17T13:25:42.841Z,101637.22
2023-04-17T13:28:09.453Z,101638.72
2023-04-17T13:30:37.253Z,101631.75
2023-04-17T13:33:04.004Z,101625.44
2023-04-17T13:35:30.565Z,101595.69
2023-04-17T13:38:00.795Z,101608.25
2023-04-17T13:40:27.295Z,101599.53
2023-04-17T13:42:54.529Z,101585.59
2023-04-17T13:45:21.376Z,101572.56
2023-04-17T13:47:47.906Z,101585.75
2023-04-17T13:50:14.440Z,101580.03
2023-04-17T13:52:40.867Z,101594.00
2023-04-17T13:55:11.765Z,101602.09
2023-04-17T13:57:38.486Z,101589.13
2023-04-17T14:00:06.328Z,101598.00
2023-04-17T14:02:32.956Z,101584.97
2023-04-17T14:04:59.865Z,101598.53
2023-04-17T14:07:27.423Z,101589.59
2023-04-17T14:09:54.029Z,101588.59
2023-04-17T14:12:21.743Z,101585.50
2023-04-17T14:14:48.299Z,101576.78
2023-04-17T14:17:14.872Z,101586.00
2023-04-17T14:19:41.370Z,101581.97
2023-04-17T14:22:07.858Z,101580.13
2023-04-17T14:24:34.219Z,101583.66
2023-04-17T14:27:01.779Z,101587.03
2023-04-17T14:29:28.435Z,101591.91
2023-04-17T14:31:55.144Z,101593.25
2023-04-17T14:34:21.825Z,101592.28
2023-04-17T14:36:48.743Z,101595.91
2023-04-17T14:39:15.467Z,101584.19
2023-04-17T14:41:42.291Z,101588.09
2023-04-17T14:44:08.914Z,101585.94
2023-04-17T14:46:35.620Z,101582.38
2023-04-17T14:49:02.621Z,101594.63
2023-04-17T14:51:30.620Z,101592.13
2023-04-17T14:53:57.532Z,101590.44
2023-04-17T14:56:24.151Z,101593.38
2023-04-17T14:58:50.724Z,101593.47
2023-04-17T15:01:17.346Z,101596.22
2023-04-17T15:03:47.322Z,101607.00
2023-04-17T15:06:14.848Z,101602.84
2023-04-17T15:08:41.637Z,101599.94
2023-04-17T15:11:08.681Z,101599.22
2023-04-17T15:13:35.846Z,101589.75
2023-04-17T15:16:02.708Z,101589.25
2023-04-17T15:18:29.272Z,101604.69
2023-04-17T15:20:55.966Z,101597.53
2023-04-17T15:23:22.834Z,101593.41
2023-04-17T15:25:49.428Z,101597.34
2023-04-17T15:28:16.094Z,101602.97
2023-04-17T15:30:42.710Z,101597.28
2023-04-17T15:33:10.239Z,101598.56
2023-04-17T15:35:37.093Z,101595.03
2023-04-17T15:38:03.746Z,101593.81
2023-04-17T15:40:30.239Z,101593.44
2023-04-17T15:42:56.811Z,101590.91
2023-04-17T15:45:23.882Z,101591.38
2023-04-17T15:47:50.511Z,101594.75
2023-04-17T15:50:18.137Z,101590.06
2023-04-17T15:52:44.916Z,101594.16
2023-04-17T15:55:11.443Z,101596.31
2023-04-17T15:57:38.049Z,101588.44
2023-04-17T16:00:05.120Z,101588.91
2023-04-17T16:02:31.673Z,101599.16
2023-04-17T16:04:58.160Z,101589.38
2023-04-17T16:07:24.603Z,101591.06
2023-04-17T16:09:51.031Z,101593.22
2023-04-17T16:12:17.576Z,101587.66
2023-04-17T16:14:44.059Z,101593.81
2023-04-17T16:17:10.588Z,101590.44
2023-04-17T16:19:36.980Z,101590.91
2023-04-17T16:22:03.628Z,101590.91
2023-04-17T16:24:30.074Z,101594.16
2023-04-17T16:26:58.249Z,101593.06
2023-04-17T16:29:25.192Z,101589.69
2023-04-17T16:31:53.141Z,101594.16
2023-04-17T16:34:20.801Z,101590.28
2023-04-17T16:36:48.157Z,101584.34
2023-04-17T16:39:14.785Z,101587.13
2023-04-17T16:41:41.851Z,101586.91
2023-04-17T16:44:08.406Z,101588.22
2023-04-17T16:46:52.081Z,101587.97
2023-04-17T16:49:21.842Z,101592.94
2023-04-17T16:51:48.270Z,101594.47
2023-04-17T16:54:14.933Z,101593.63
2023-04-17T16:56:42.076Z,101596.00
2023-04-17T16:59:08.616Z,101591.78
2023-04-17T17:01:35.165Z,101586.44
2023-04-17T17:04:01.803Z,101593.53
2023-04-17T17:06:28.409Z,101593.75
2023-04-17T17:08:55.466Z,101592.28
2023-04-17T17:11:22.203Z,101593.63
2023-04-17T17:13:49.792Z,101597.06
2023-04-17T17:16:17.797Z,101598.59
2023-04-17T17:18:44.994Z,101599.69
2023-04-17T17:21:11.476Z,101601.63
2023-04-17T17:23:38.218Z,101604.63
2023-04-17T17:26:05.516Z,101593.75
2023-04-17T17:28:32.663Z,101601.06
2023-04-17T17:31:03.948Z,101598.13
2023-04-17T17:33:32.070Z,101597.72
2023-04-17T17:35:59.045Z,101594.53
2023-04-17T17:38:28.470Z,101599.47
2023-04-17T17:40:56.139Z,101601.84
2023-04-17T17:43:22.744Z,101607.22
2023-04-17T17:45:49.387Z,101604.53
2023-04-17T17:48:18.076Z,101606.25
2023-04-17T17:50:44.505Z,101607.84
2023-04-17T17:53:11.033Z,101608.38
2023-04-17T17:55:38.078Z,101606.06
2023-04-17T17:58:08.912Z,101621.06
2023-04-17T18:00:35.508Z,101609.41
2023-04-17T18:03:02.185Z,101616.28
2023-04-17T18:05:28.732Z,101616.75
2023-04-17T18:07:55.266Z,101618.31
2023-04-17T18:10:21.657Z,101619.19
2023-04-17T18:12:49.122Z,101617.72
2023-04-17T18:15:15.527Z,101624.97
2023-04-17T18:17:42.752Z,101623.28
2023-04-17T18:20:09.651Z,101625.25
2023-04-17T18:22:37.938Z,101626.16
2023-04-17T18:25:08.298Z,101624.06
2023-04-17T18:27:37.516Z,101640.91
2023-04-17T18:30:05.491Z,101636.25
2023-04-17T18:32:32.219Z,101634.13
2023-04-17T18:34:59.068Z,101638.59
2023-04-17T18:37:25.686Z,101641.38
2023-04-17T18:39:52.665Z,101646.88
2023-04-17T18:42:19.738Z,101643.88
2023-04-17T18:44:46.200Z,101657.03
2023-04-17T18:47:12.653Z,101649.38
2023-04-17T18:49:39.176Z,101653.59
2023-04-17T18:52:05.736Z,101654.38
2023-04-17T18:54:32.169Z,101656.88
2023-04-17T18:56:58.551Z,101662.81
2023-04-17T18:59:26.164Z,101661.50
2023-04-17T19:01:52.768Z,101666.31
2023-04-17T19:04:19.624Z,101670.28
2023-04-17T19:06:45.996Z,101669.81
2023-04-17T19:09:12.715Z,101677.78
2023-04-17T19:11:39.154Z,101675.38
2023-04-17T19:14:05.652Z,101676.56
2023-04-17T19:16:32.080Z,101671.41
2023-04-17T19:18:58.576Z,101676.22
2023-04-17T19:21:25.069Z,101680.81
2023-04-17T19:23:51.557Z,101679.91
2023-04-17T19:26:17.974Z,101681.75
2023-04-17T19:28:44.365Z,101680.19
2023-04-17T19:31:10.810Z,101687.53
2023-04-17T19:33:37.260Z,101686.63
2023-04-17T19:36:03.822Z,101689.31
2023-04-17T19:38:31.396Z,101691.31
2023-04-17T19:41:17.910Z,101689.75
2023-04-17T19:43:52.577Z,101685.22
2023-04-17T19:46:19.821Z,101688.94
2023-04-17T19:48:47.325Z,101695.25
2023-04-17T19:51:14.891Z,101687.72
2023-04-17T19:53:43.724Z,101687.47
2023-04-17T19:56:11.247Z,101700.94
2023-04-17T19:58:38.445Z,101691.75
2023-04-17T20:01:04.964Z,101690.59
2023-04-17T20:03:32.464Z,101697.75
2023-04-17T20:05:59.962Z,101699.16
2023-04-17T20:08:26.537Z,101700.56
2023-04-17T20:10:52.921Z,101695.44
2023-04-17T20:13:19.364Z,101697.72
2023-04-17T20:15:45.846Z,101702.06
2023-04-17T20:18:12.514Z,101705.22
2023-04-17T20:20:39.180Z,101698.19
2023-04-17T20:23:06.084Z,101696.47
2023-04-17T20:25:32.526Z,101697.50
2023-04-17T20:27:58.944Z,101693.09
2023-04-17T20:30:25.472Z,101695.84
2023-04-17T20:32:52.156Z,101700.25
2023-04-17T20:35:20.888Z,101701.97
2023-04-17T20:37:47.424Z,101702.84
2023-04-17T20:40:14.287Z,101694.59
2023-04-17T20:42:42.128Z,101695.25
2023-04-17T20:45:09.476Z,101691.84
2023-04-17T20:47:37.410Z,101699.44
2023-04-17T20:50:05.972Z,101694.28
2023-04-17T20:52:33.093Z,101696.78
2023-04-17T20:55:00.991Z,101688.22
2023-04-17T20:57:28.400Z,101688.78
2023-04-17T20:59:54.958Z,101692.78
2023-04-17T21:02:21.775Z,101687.19
2023-04-17T21:04:48.883Z,101688.59
2023-04-17T21:07:15.947Z,101689.69
2023-04-17T21:09:42.541Z,101684.78
2023-04-17T21:12:09.148Z,101685.81
2023-04-17T21:14:36.585Z,101691.69
2023-04-17T21:17:03.085Z,101689.28
2023-04-17T21:19:30.748Z,101687.13
2023-04-17T21:21:58.337Z,101686.25
2023-04-17T21:24:25.027Z,101688.31
2023-04-17T21:26:51.582Z,101685.56
2023-04-17T21:29:17.971Z,101692.13
2023-04-17T21:31:44.450Z,101689.56
2023-04-17T21:34:11.098Z,101691.44
2023-04-17T21:36:37.686Z,101685.94
2023-04-17T21:39:04.253Z,101682.34
2023-04-17T21:41:31.794Z,101684.06
2023-04-17T21:44:02.571Z,101689.00
2023-04-17T21:46:29.364Z,101689.50
2023-04-17T21:48:55.994Z,101693.75
2023-04-17T21:51:23.050Z,101685.13
2023-04-17T21:53:49.608Z,101683.72
2023-04-17T21:56:16.058Z,101688.19
2023-04-17T21:58:42.461Z,101690.94
2023-04-17T22:01:08.907Z,101684.41
2023-04-17T22:03:35.356Z,101686.09
2023-04-17T22:06:01.780Z,101683.53
2023-04-17T22:08:28.198Z,101684.41
2023-04-17T22:10:54.604Z,101685.44
2023-04-17T22:13:21.204Z,101679.09
2023-04-17T22:15:48.387Z,101676.53
2023-04-17T22:18:15.340Z,101677.94
2023-04-17T22:20:41.725Z,101681.91
2023-04-17T22:23:08.126Z,101684.84
2023-04-17T22:25:34.540Z,101686.91
2023-04-17T22:28:00.941Z,101692.78
2023-04-17T22:30:27.330Z,101684.53
2023-04-17T22:32:53.738Z,101682.81
2023-04-17T22:35:20.150Z,101689.19
2023-04-17T22:37:46.557Z,101684.53
2023-04-17T22:40:13.490Z,101684.53
2023-04-17T22:42:39.869Z,101685.78
2023-04-17T22:45:06.645Z,101692.31
2023-04-17T22:47:33.152Z,101684.25
2023-04-17T22:49:59.830Z,101691.81
2023-04-17T22:52:26.195Z,101690.31
2023-04-17T22:54:52.576Z,101681.59
2023-04-17T22:57:18.949Z,101680.91
2023-04-17T22:59:45.405Z,101687.63
2023-04-17T23:02:11.962Z,101688.84
2023-04-17T23:04:38.495Z,101686.44
2023-04-17T23:07:05.348Z,101685.81
2023-04-17T23:09:31.773Z,101682.56
2023-04-17T23:11:58.164Z,101677.81
2023-04-17T23:14:26.142Z,101678.38
2023-04-17T23:16:52.884Z,101676.34
2023-04-17T23:19:21.187Z,101684.28
2023-04-17T23:21:47.600Z,101680.19
2023-04-17T23:24:14.296Z,101671.63
2023-04-17T23:26:41.835Z,101683.34
2023-04-17T23:29:08.251Z,101680.28
2023-04-17T23:31:37.677Z,101682.91
2023-04-17T23:34:04.188Z,101672.66
2023-04-17T23:36:30.620Z,101678.69
2023-04-17T23:38:57.043Z,101681.09
2023-04-17T23:41:23.708Z,101681.47
2023-04-17T23:43:51.317Z,101673.59
2023-04-17T23:46:18.465Z,101671.22
2023-04-17T23:48:44.889Z,101671.56
2023-04-17T23:51:11.362Z,101683.72
2023-04-17T23:53:37.802Z,101677.06
2023-04-17T23:56:04.338Z,101671.25
2023-04-17T23:58:30.789Z,101677.47
